sensor_id;sensor_type;location;lat;lon;timestamp;temperature;humidity
17381;DHT22;8808;52.478;13.378;2022-08-04T00:00:12;23.60;99.90
17381;DHT22;8808;52.478;13.378;2022-08-04T00:02:51;23.60;99.90
17381;DHT22;8808;52.478;13.378;2022-08-04T00:05:29;23.60;99.90
17381;DHT22;8808;52.478;13.378;2022-08-04T00:08:21;23.50;99.90
17381;DHT22;8808;52.478;13.378;2022-08-04T00:10:53;23.50;99.90
17381;DHT22;8808;52.478;13.378;2022-08-04T00:13:22;23.50;99.90
17381;DHT22;8808;52.478;13.378;2022-08-04T00:15:51;23.60;99.90
17381;DHT22;8808;52.478;13.378;2022-08-04T00:18:22;23.60;99.90
17381;DHT22;8808;52.478;13.378;2022-08-04T00:20:53;23.50;99.90
17381;DHT22;8808;52.478;13.378;2022-08-04T00:23:25;23.50;99.90
17381;DHT22;8808;52.478;13.378;2022-08-04T00:25:52;23.50;99.90
17381;DHT22;8808;52.478;13.378;2022-08-04T00:28:20;23.50;99.90
17381;DHT22;8808;52.478;13.378;2022-08-04T00:30:47;23.50;99.90
17381;DHT22;8808;52.478;13.378;2022-08-04T00:33:18;23.50;99.90
17381;DHT22;8808;52.478;13.378;2022-08-04T00:35:45;23.50;99.90
17381;DHT22;8808;52.478;13.378;2022-08-04T00:38:14;23.40;99.90
17381;DHT22;8808;52.478;13.378;2022-08-04T00:40:49;23.40;99.90
17381;DHT22;8808;52.478;13.378;2022-08-04T00:43:29;23.40;99.90
17381;DHT22;8808;52.478;13.378;2022-08-04T00:49:13;23.40;99.90
17381;DHT22;8808;52.478;13.378;2022-08-04T00:51:48;23.30;99.90
17381;DHT22;8808;52.478;13.378;2022-08-04T00:54:24;23.30;99.90
17381;DHT22;8808;52.478;13.378;2022-08-04T00:57:17;23.30;99.90
17381;DHT22;8808;52.478;13.378;2022-08-04T01:00:03;23.20;99.90
17381;DHT22;8808;52.478;13.378;2022-08-04T01:02:35;23.20;99.90
17381;DHT22;8808;52.478;13.378;2022-08-04T01:05:04;23.20;99.90
17381;DHT22;8808;52.478;13.378;2022-08-04T01:08:15;23.20;99.90
17381;DHT22;8808;52.478;13.378;2022-08-04T01:10:55;23.20;99.90
17381;DHT22;8808;52.478;13.378;2022-08-04T01:14:10;23.20;99.90
17381;DHT22;8808;52.478;13.378;2022-08-04T01:16:47;23.20;99.90
17381;DHT22;8808;52.478;13.378;2022-08-04T01:19:47;23.10;99.90
17381;DHT22;8808;52.478;13.378;2022-08-04T01:22:27;23.10;99.90
17381;DHT22;8808;52.478;13.378;2022-08-04T01:25:02;23.00;99.90
17381;DHT22;8808;52.478;13.378;2022-08-04T01:27:48;23.00;99.90
17381;DHT22;8808;52.478;13.378;2022-08-04T01:30:20;22.90;99.90
17381;DHT22;8808;52.478;13.378;2022-08-04T01:32:51;22.90;99.90
17381;DHT22;8808;52.478;13.378;2022-08-04T01:35:23;22.80;99.90
17381;DHT22;8808;52.478;13.378;2022-08-04T01:38:00;22.80;99.90
17381;DHT22;8808;52.478;13.378;2022-08-04T01:40:28;22.70;99.90
17381;DHT22;8808;52.478;13.378;2022-08-04T01:42:57;22.70;99.90
17381;DHT22;8808;52.478;13.378;2022-08-04T01:45:29;22.70;99.90
17381;DHT22;8808;52.478;13.378;2022-08-04T01:47:56;22.70;99.90
17381;DHT22;8808;52.478;13.378;2022-08-04T01:50:24;22.70;99.90
17381;DHT22;8808;52.478;13.378;2022-08-04T01:52:54;22.60;99.90
17381;DHT22;8808;52.478;13.378;2022-08-04T01:55:20;22.60;99.90
17381;DHT22;8808;52.478;13.378;2022-08-04T01:57:49;22.60;99.90
17381;DHT22;8808;52.478;13.378;2022-08-04T02:00:18;22.50;99.90
17381;DHT22;8808;52.478;13.378;2022-08-04T02:02:49;22.50;99.90
17381;DHT22;8808;52.478;13.378;2022-08-04T02:05:18;22.50;99.90
17381;DHT22;8808;52.478;13.378;2022-08-04T02:07:53;22.50;99.90
17381;DHT22;8808;52.478;13.378;2022-08-04T02:10:27;22.50;99.90
17381;DHT22;8808;52.478;13.378;2022-08-04T02:13:01;22.50;99.90
17381;DHT22;8808;52.478;13.378;2022-08-04T02:15:40;22.50;99.90
17381;DHT22;8808;52.478;13.378;2022-08-04T02:18:16;22.40;99.90
17381;DHT22;8808;52.478;13.378;2022-08-04T02:20:48;22.30;99.90
17381;DHT22;8808;52.478;13.378;2022-08-04T02:23:18;22.30;99.90
17381;DHT22;8808;52.478;13.378;2022-08-04T02:25:55;22.20;99.90
17381;DHT22;8808;52.478;13.378;2022-08-04T02:28:29;22.20;99.90
17381;DHT22;8808;52.478;13.378;2022-08-04T02:31:07;22.20;99.90
17381;DHT22;8808;52.478;13.378;2022-08-04T02:33:38;22.10;99.90
17381;DHT22;8808;52.478;13.378;2022-08-04T02:36:09;22.10;99.90
17381;DHT22;8808;52.478;13.378;2022-08-04T02:38:58;22.10;99.90
17381;DHT22;8808;52.478;13.378;2022-08-04T02:41:28;22.10;99.90
17381;DHT22;8808;52.478;13.378;2022-08-04T02:43:56;22.00;99.90
17381;DHT22;8808;52.478;13.378;2022-08-04T02:46:23;22.00;99.90
17381;DHT22;8808;52.478;13.378;2022-08-04T02:48:53;21.90;99.90
17381;DHT22;8808;52.478;13.378;2022-08-04T02:51:26;21.90;99.90
17381;DHT22;8808;52.478;13.378;2022-08-04T02:53:55;21.90;99.90
17381;DHT22;8808;52.478;13.378;2022-08-04T02:56:24;21.80;99.90
17381;DHT22;8808;52.478;13.378;2022-08-04T02:58:53;21.70;99.90
17381;DHT22;8808;52.478;13.378;2022-08-04T03:01:22;21.70;99.90
17381;DHT22;8808;52.478;13.378;2022-08-04T03:26:01;21.50;99.90
17381;DHT22;8808;52.478;13.378;2022-08-04T03:32:05;21.50;99.90
17381;DHT22;8808;52.478;13.378;2022-08-04T03:34:46;21.50;99.90
17381;DHT22;8808;52.478;13.378;2022-08-04T03:37:28;21.50;99.90
17381;DHT22;8808;52.478;13.378;2022-08-04T03:40:21;21.40;99.90
17381;DHT22;8808;52.478;13.378;2022-08-04T03:46:10;21.40;99.90
17381;DHT22;8808;52.478;13.378;2022-08-04T03:49:09;21.30;99.90
17381;DHT22;8808;52.478;13.378;2022-08-04T03:51:52;21.10;99.90
17381;DHT22;8808;52.478;13.378;2022-08-04T03:55:12;21.10;99.90
17381;DHT22;8808;52.478;13.378;2022-08-04T03:57:57;21.00;99.90
17381;DHT22;8808;52.478;13.378;2022-08-04T04:00:39;21.00;99.90
17381;DHT22;8808;52.478;13.378;2022-08-04T04:06:40;21.20;99.90
17381;DHT22;8808;52.478;13.378;2022-08-04T04:12:51;21.70;99.90
17381;DHT22;8808;52.478;13.378;2022-08-04T04:15:46;21.90;99.90
17381;DHT22;8808;52.478;13.378;2022-08-04T04:21:27;22.00;99.90
17381;DHT22;8808;52.478;13.378;2022-08-04T04:24:10;22.20;99.90
17381;DHT22;8808;52.478;13.378;2022-08-04T04:26:51;22.20;99.90
17381;DHT22;8808;52.478;13.378;2022-08-04T04:29:31;22.30;99.90
17381;DHT22;8808;52.478;13.378;2022-08-04T04:32:17;22.30;99.90
17381;DHT22;8808;52.478;13.378;2022-08-04T04:34:54;22.30;99.90
17381;DHT22;8808;52.478;13.378;2022-08-04T04:37:40;22.40;99.90
17381;DHT22;8808;52.478;13.378;2022-08-04T04:40:21;22.50;99.90
17381;DHT22;8808;52.478;13.378;2022-08-04T04:43:08;22.60;99.90
17381;DHT22;8808;52.478;13.378;2022-08-04T04:45:41;22.60;99.90
17381;DHT22;8808;52.478;13.378;2022-08-04T04:48:16;22.80;99.90
17381;DHT22;8808;52.478;13.378;2022-08-04T04:50:57;22.80;99.90
17381;DHT22;8808;52.478;13.378;2022-08-04T04:53:41;22.90;99.90
17381;DHT22;8808;52.478;13.378;2022-08-04T04:56:15;22.90;99.90
17381;DHT22;8808;52.478;13.378;2022-08-04T04:58:43;22.90;99.90
17381;DHT22;8808;52.478;13.378;2022-08-04T05:01:27;23.00;99.90
17381;DHT22;8808;52.478;13.378;2022-08-04T05:04:10;23.20;99.90
17381;DHT22;8808;52.478;13.378;2022-08-04T05:06:58;23.30;99.90
17381;DHT22;8808;52.478;13.378;2022-08-04T05:09:44;23.40;99.90
17381;DHT22;8808;52.478;13.378;2022-08-04T05:12:38;23.50;99.90
17381;DHT22;8808;52.478;13.378;2022-08-04T05:15:09;23.60;99.90
17381;DHT22;8808;52.478;13.378;2022-08-04T05:17:39;23.60;99.90
17381;DHT22;8808;52.478;13.378;2022-08-04T05:20:09;23.80;99.90
17381;DHT22;8808;52.478;13.378;2022-08-04T05:22:41;23.90;99.90
17381;DHT22;8808;52.478;13.378;2022-08-04T05:25:15;23.90;99.90
17381;DHT22;8808;52.478;13.378;2022-08-04T05:27:54;24.10;99.90
17381;DHT22;8808;52.478;13.378;2022-08-04T05:30:23;24.10;99.90
17381;DHT22;8808;52.478;13.378;2022-08-04T05:32:56;24.10;99.90
17381;DHT22;8808;52.478;13.378;2022-08-04T05:35:28;24.30;99.90
17381;DHT22;8808;52.478;13.378;2022-08-04T05:37:57;24.40;99.90
17381;DHT22;8808;52.478;13.378;2022-08-04T05:40:25;24.40;99.90
17381;DHT22;8808;52.478;13.378;2022-08-04T05:42:53;24.50;99.90
17381;DHT22;8808;52.478;13.378;2022-08-04T05:45:21;24.50;99.90
17381;DHT22;8808;52.478;13.378;2022-08-04T05:47:50;24.60;99.90
17381;DHT22;8808;52.478;13.378;2022-08-04T05:50:19;24.70;99.90
17381;DHT22;8808;52.478;13.378;2022-08-04T05:52:48;24.80;99.90
17381;DHT22;8808;52.478;13.378;2022-08-04T05:55:16;25.00;99.90
17381;DHT22;8808;52.478;13.378;2022-08-04T05:57:44;25.20;99.90
17381;DHT22;8808;52.478;13.378;2022-08-04T06:00:14;25.20;99.90
17381;DHT22;8808;52.478;13.378;2022-08-04T06:02:43;25.30;99.90
17381;DHT22;8808;52.478;13.378;2022-08-04T06:05:12;25.50;99.90
17381;DHT22;8808;52.478;13.378;2022-08-04T06:07:41;25.60;99.90
17381;DHT22;8808;52.478;13.378;2022-08-04T06:10:08;25.40;99.90
17381;DHT22;8808;52.478;13.378;2022-08-04T06:12:39;25.50;99.90
17381;DHT22;8808;52.478;13.378;2022-08-04T06:15:08;25.60;99.90
17381;DHT22;8808;52.478;13.378;2022-08-04T06:17:41;25.60;99.90
17381;DHT22;8808;52.478;13.378;2022-08-04T06:20:13;25.80;99.90
17381;DHT22;8808;52.478;13.378;2022-08-04T06:22:44;25.90;99.90
17381;DHT22;8808;52.478;13.378;2022-08-04T06:25:15;26.00;99.90
17381;DHT22;8808;52.478;13.378;2022-08-04T06:27:46;26.00;99.90
17381;DHT22;8808;52.478;13.378;2022-08-04T06:30:14;26.10;99.90
17381;DHT22;8808;52.478;13.378;2022-08-04T06:32:44;26.30;99.90
17381;DHT22;8808;52.478;13.378;2022-08-04T06:35:21;26.40;99.90
17381;DHT22;8808;52.478;13.378;2022-08-04T06:40:21;26.50;99.90
17381;DHT22;8808;52.478;13.378;2022-08-04T06:42:49;26.70;99.90
17381;DHT22;8808;52.478;13.378;2022-08-04T06:45:16;26.80;99.90
17381;DHT22;8808;52.478;13.378;2022-08-04T06:47:45;27.00;99.90
17381;DHT22;8808;52.478;13.378;2022-08-04T06:50:13;27.40;99.90
17381;DHT22;8808;52.478;13.378;2022-08-04T06:52:43;27.90;99.90
17381;DHT22;8808;52.478;13.378;2022-08-04T06:55:12;28.30;99.90
17381;DHT22;8808;52.478;13.378;2022-08-04T06:57:40;28.60;99.90
17381;DHT22;8808;52.478;13.378;2022-08-04T07:00:09;28.70;99.50
17381;DHT22;8808;52.478;13.378;2022-08-04T07:02:39;29.20;97.60
17381;DHT22;8808;52.478;13.378;2022-08-04T07:05:07;29.00;97.10
17381;DHT22;8808;52.478;13.378;2022-08-04T07:07:36;28.60;95.90
17381;DHT22;8808;52.478;13.378;2022-08-04T07:10:05;28.30;97.80
17381;DHT22;8808;52.478;13.378;2022-08-04T07:12:34;28.10;97.00
17381;DHT22;8808;52.478;13.378;2022-08-04T07:15:02;28.10;96.40
17381;DHT22;8808;52.478;13.378;2022-08-04T07:17:30;27.80;97.20
17381;DHT22;8808;52.478;13.378;2022-08-04T07:19:57;27.40;98.30
17381;DHT22;8808;52.478;13.378;2022-08-04T07:22:25;27.30;99.00
17381;DHT22;8808;52.478;13.378;2022-08-04T07:24:53;27.10;99.10
17381;DHT22;8808;52.478;13.378;2022-08-04T07:27:20;27.00;99.10
17381;DHT22;8808;52.478;13.378;2022-08-04T07:29:50;27.10;99.00
17381;DHT22;8808;52.478;13.378;2022-08-04T07:32:19;27.10;99.40
17381;DHT22;8808;52.478;13.378;2022-08-04T07:37:14;26.80;99.40
17381;DHT22;8808;52.478;13.378;2022-08-04T07:39:41;26.80;99.60
17381;DHT22;8808;52.478;13.378;2022-08-04T07:42:08;26.90;99.70
17381;DHT22;8808;52.478;13.378;2022-08-04T07:44:35;26.90;99.90
17381;DHT22;8808;52.478;13.378;2022-08-04T07:47:05;26.80;99.90
17381;DHT22;8808;52.478;13.378;2022-08-04T07:49:32;26.70;99.90
17381;DHT22;8808;52.478;13.378;2022-08-04T07:54:28;26.70;99.90
17381;DHT22;8808;52.478;13.378;2022-08-04T07:56:55;26.80;99.90
17381;DHT22;8808;52.478;13.378;2022-08-04T07:59:22;26.80;99.60
17381;DHT22;8808;52.478;13.378;2022-08-04T08:01:50;26.70;99.90
17381;DHT22;8808;52.478;13.378;2022-08-04T08:04:20;26.80;99.70
17381;DHT22;8808;52.478;13.378;2022-08-04T08:06:48;26.80;99.70
17381;DHT22;8808;52.478;13.378;2022-08-04T08:09:18;26.90;99.90
17381;DHT22;8808;52.478;13.378;2022-08-04T08:11:48;27.00;99.40
17381;DHT22;8808;52.478;13.378;2022-08-04T08:14:15;27.10;99.00
17381;DHT22;8808;52.478;13.378;2022-08-04T08:16:43;26.90;99.60
17381;DHT22;8808;52.478;13.378;2022-08-04T08:19:10;26.90;99.70
17381;DHT22;8808;52.478;13.378;2022-08-04T08:21:38;27.30;97.30
17381;DHT22;8808;52.478;13.378;2022-08-04T08:24:06;27.30;98.10
17381;DHT22;8808;52.478;13.378;2022-08-04T08:26:33;27.10;99.10
17381;DHT22;8808;52.478;13.378;2022-08-04T08:29:01;27.00;99.10
17381;DHT22;8808;52.478;13.378;2022-08-04T08:31:28;26.90;99.10
17381;DHT22;8808;52.478;13.378;2022-08-04T08:33:56;26.90;99.30
17381;DHT22;8808;52.478;13.378;2022-08-04T08:36:28;27.00;99.00
17381;DHT22;8808;52.478;13.378;2022-08-04T08:39:02;27.40;98.50
17381;DHT22;8808;52.478;13.378;2022-08-04T08:42:06;27.50;98.00
17381;DHT22;8808;52.478;13.378;2022-08-04T08:45:04;27.40;98.10
17381;DHT22;8808;52.478;13.378;2022-08-04T08:47:46;27.50;97.90
17381;DHT22;8808;52.478;13.378;2022-08-04T08:50:48;27.40;98.20
17381;DHT22;8808;52.478;13.378;2022-08-04T08:53:48;27.40;97.80
17381;DHT22;8808;52.478;13.378;2022-08-04T08:56:27;27.30;98.00
17381;DHT22;8808;52.478;13.378;2022-08-04T08:59:12;27.40;97.90
17381;DHT22;8808;52.478;13.378;2022-08-04T09:01:59;27.20;98.10
17381;DHT22;8808;52.478;13.378;2022-08-04T09:04:56;27.30;98.00
17381;DHT22;8808;52.478;13.378;2022-08-04T09:07:57;27.40;97.70
17381;DHT22;8808;52.478;13.378;2022-08-04T09:10:32;27.50;97.80
17381;DHT22;8808;52.478;13.378;2022-08-04T09:13:03;27.60;97.50
17381;DHT22;8808;52.478;13.378;2022-08-04T09:15:35;27.80;97.10
17381;DHT22;8808;52.478;13.378;2022-08-04T09:18:06;28.40;94.90
17381;DHT22;8808;52.478;13.378;2022-08-04T09:20:38;28.40;95.50
17381;DHT22;8808;52.478;13.378;2022-08-04T09:23:19;28.30;95.90
17381;DHT22;8808;52.478;13.378;2022-08-04T09:25:50;28.50;95.20
17381;DHT22;8808;52.478;13.378;2022-08-04T09:28:23;28.20;95.50
17381;DHT22;8808;52.478;13.378;2022-08-04T09:30:55;28.00;95.70
17381;DHT22;8808;52.478;13.378;2022-08-04T09:33:32;27.70;96.00
17381;DHT22;8808;52.478;13.378;2022-08-04T09:36:05;27.70;96.00
17381;DHT22;8808;52.478;13.378;2022-08-04T09:38:41;27.90;95.80
17381;DHT22;8808;52.478;13.378;2022-08-04T09:41:19;28.00;95.60
17381;DHT22;8808;52.478;13.378;2022-08-04T09:44:00;27.90;95.40
17381;DHT22;8808;52.478;13.378;2022-08-04T09:46:32;28.20;95.10
17381;DHT22;8808;52.478;13.378;2022-08-04T09:49:02;27.90;95.50
17381;DHT22;8808;52.478;13.378;2022-08-04T09:51:41;27.80;95.30
17381;DHT22;8808;52.478;13.378;2022-08-04T09:54:15;27.80;95.40
17381;DHT22;8808;52.478;13.378;2022-08-04T09:57:09;27.90;95.40
17381;DHT22;8808;52.478;13.378;2022-08-04T09:59:44;27.80;95.10
17381;DHT22;8808;52.478;13.378;2022-08-04T10:02:18;28.10;94.60
17381;DHT22;8808;52.478;13.378;2022-08-04T10:04:47;28.10;93.60
17381;DHT22;8808;52.478;13.378;2022-08-04T10:07:47;28.30;93.80
17381;DHT22;8808;52.478;13.378;2022-08-04T10:10:24;28.30;93.70
17381;DHT22;8808;52.478;13.378;2022-08-04T10:13:08;28.40;94.00
17381;DHT22;8808;52.478;13.378;2022-08-04T10:15:50;28.80;92.50
17381;DHT22;8808;52.478;13.378;2022-08-04T10:18:34;29.10;92.70
17381;DHT22;8808;52.478;13.378;2022-08-04T10:21:09;29.10;92.50
17381;DHT22;8808;52.478;13.378;2022-08-04T10:23:45;29.60;91.10
17381;DHT22;8808;52.478;13.378;2022-08-04T10:26:28;28.90;92.70
17381;DHT22;8808;52.478;13.378;2022-08-04T10:29:02;28.60;91.90
17381;DHT22;8808;52.478;13.378;2022-08-04T10:31:37;28.50;93.00
17381;DHT22;8808;52.478;13.378;2022-08-04T10:34:09;28.30;92.70
17381;DHT22;8808;52.478;13.378;2022-08-04T10:36:43;28.10;93.30
17381;DHT22;8808;52.478;13.378;2022-08-04T10:39:13;28.00;93.40
17381;DHT22;8808;52.478;13.378;2022-08-04T10:41:49;28.10;93.70
17381;DHT22;8808;52.478;13.378;2022-08-04T10:44:26;28.20;93.30
17381;DHT22;8808;52.478;13.378;2022-08-04T10:46:59;28.40;93.20
17381;DHT22;8808;52.478;13.378;2022-08-04T10:49:33;29.50;91.60
17381;DHT22;8808;52.478;13.378;2022-08-04T10:52:04;28.60;92.70
17381;DHT22;8808;52.478;13.378;2022-08-04T10:54:38;28.30;92.90
17381;DHT22;8808;52.478;13.378;2022-08-04T10:57:13;29.20;91.70
17381;DHT22;8808;52.478;13.378;2022-08-04T10:59:46;29.30;91.40
17381;DHT22;8808;52.478;13.378;2022-08-04T11:02:29;30.00;88.10
17381;DHT22;8808;52.478;13.378;2022-08-04T11:05:09;29.30;90.80
17381;DHT22;8808;52.478;13.378;2022-08-04T11:07:40;28.40;92.40
17381;DHT22;8808;52.478;13.378;2022-08-04T11:10:09;28.00;93.10
17381;DHT22;8808;52.478;13.378;2022-08-04T11:12:39;28.10;92.20
17381;DHT22;8808;52.478;13.378;2022-08-04T11:15:12;28.20;92.50
17381;DHT22;8808;52.478;13.378;2022-08-04T11:17:46;28.10;93.10
17381;DHT22;8808;52.478;13.378;2022-08-04T11:20:22;28.00;93.30
17381;DHT22;8808;52.478;13.378;2022-08-04T11:22:54;27.90;93.40
17381;DHT22;8808;52.478;13.378;2022-08-04T11:25:26;27.80;93.50
17381;DHT22;8808;52.478;13.378;2022-08-04T11:28:03;28.20;92.40
17381;DHT22;8808;52.478;13.378;2022-08-04T11:30:37;29.20;90.40
17381;DHT22;8808;52.478;13.378;2022-08-04T11:33:12;29.50;91.00
17381;DHT22;8808;52.478;13.378;2022-08-04T11:35:46;28.50;92.20
17381;DHT22;8808;52.478;13.378;2022-08-04T11:38:20;28.10;92.70
17381;DHT22;8808;52.478;13.378;2022-08-04T11:40:52;28.00;93.10
17381;DHT22;8808;52.478;13.378;2022-08-04T11:43:26;28.20;92.10
17381;DHT22;8808;52.478;13.378;2022-08-04T11:45:59;28.80;89.80
17381;DHT22;8808;52.478;13.378;2022-08-04T11:48:33;28.90;91.00
17381;DHT22;8808;52.478;13.378;2022-08-04T11:51:01;28.50;91.80
17381;DHT22;8808;52.478;13.378;2022-08-04T11:53:31;28.90;87.70
17381;DHT22;8808;52.478;13.378;2022-08-04T11:56:03;28.60;91.30
17381;DHT22;8808;52.478;13.378;2022-08-04T11:58:30;28.10;92.50
17381;DHT22;8808;52.478;13.378;2022-08-04T12:01:04;28.40;91.60
17381;DHT22;8808;52.478;13.378;2022-08-04T12:03:38;28.10;91.40
17381;DHT22;8808;52.478;13.378;2022-08-04T12:06:17;28.40;88.00
17381;DHT22;8808;52.478;13.378;2022-08-04T12:09:02;30.30;87.90
17381;DHT22;8808;52.478;13.378;2022-08-04T12:11:39;29.70;88.30
17381;DHT22;8808;52.478;13.378;2022-08-04T12:14:17;28.90;90.50
17381;DHT22;8808;52.478;13.378;2022-08-04T12:16:54;28.10;91.60
17381;DHT22;8808;52.478;13.378;2022-08-04T12:19:29;28.00;92.10
17381;DHT22;8808;52.478;13.378;2022-08-04T12:22:00;27.80;92.40
17381;DHT22;8808;52.478;13.378;2022-08-04T12:24:32;27.80;92.40
17381;DHT22;8808;52.478;13.378;2022-08-04T12:27:05;28.20;91.50
17381;DHT22;8808;52.478;13.378;2022-08-04T12:29:34;28.20;91.90
17381;DHT22;8808;52.478;13.378;2022-08-04T12:32:10;28.30;91.70
17381;DHT22;8808;52.478;13.378;2022-08-04T12:34:48;28.60;91.30
17381;DHT22;8808;52.478;13.378;2022-08-04T12:37:25;28.50;90.50
17381;DHT22;8808;52.478;13.378;2022-08-04T12:39:59;29.80;89.30
17381;DHT22;8808;52.478;13.378;2022-08-04T12:42:31;29.00;90.30
17381;DHT22;8808;52.478;13.378;2022-08-04T12:45:03;30.10;87.50
17381;DHT22;8808;52.478;13.378;2022-08-04T12:47:34;29.40;89.20
17381;DHT22;8808;52.478;13.378;2022-08-04T12:50:04;28.50;89.90
17381;DHT22;8808;52.478;13.378;2022-08-04T12:52:41;28.30;91.10
17381;DHT22;8808;52.478;13.378;2022-08-04T12:55:09;28.40;91.00
17381;DHT22;8808;52.478;13.378;2022-08-04T12:57:36;28.10;91.40
17381;DHT22;8808;52.478;13.378;2022-08-04T13:00:04;28.10;91.60
17381;DHT22;8808;52.478;13.378;2022-08-04T13:02:36;28.30;90.10
17381;DHT22;8808;52.478;13.378;2022-08-04T13:05:08;29.30;90.30
17381;DHT22;8808;52.478;13.378;2022-08-04T13:07:40;28.40;90.60
17381;DHT22;8808;52.478;13.378;2022-08-04T13:10:11;28.20;91.70
17381;DHT22;8808;52.478;13.378;2022-08-04T13:12:39;28.30;91.10
17381;DHT22;8808;52.478;13.378;2022-08-04T13:15:11;29.90;84.30
17381;DHT22;8808;52.478;13.378;2022-08-04T13:17:49;30.10;84.50
17381;DHT22;8808;52.478;13.378;2022-08-04T13:20:24;29.60;87.90
17381;DHT22;8808;52.478;13.378;2022-08-04T13:22:56;28.50;90.40
17381;DHT22;8808;52.478;13.378;2022-08-04T13:25:27;28.30;88.10
17381;DHT22;8808;52.478;13.378;2022-08-04T13:27:54;28.20;90.70
17381;DHT22;8808;52.478;13.378;2022-08-04T13:30:21;28.40;90.00
17381;DHT22;8808;52.478;13.378;2022-08-04T13:32:52;28.80;89.10
17381;DHT22;8808;52.478;13.378;2022-08-04T13:35:23;28.50;87.90
17381;DHT22;8808;52.478;13.378;2022-08-04T13:37:51;28.50;88.30
17381;DHT22;8808;52.478;13.378;2022-08-04T13:40:21;28.60;88.50
17381;DHT22;8808;52.478;13.378;2022-08-04T13:42:51;29.00;82.60
17381;DHT22;8808;52.478;13.378;2022-08-04T13:45:19;29.50;85.80
17381;DHT22;8808;52.478;13.378;2022-08-04T13:47:48;28.90;88.40
17381;DHT22;8808;52.478;13.378;2022-08-04T13:50:18;28.30;90.00
17381;DHT22;8808;52.478;13.378;2022-08-04T13:52:47;28.00;90.60
17381;DHT22;8808;52.478;13.378;2022-08-04T13:55:25;28.70;81.40
17381;DHT22;8808;52.478;13.378;2022-08-04T13:57:56;29.50;85.00
17381;DHT22;8808;52.478;13.378;2022-08-04T14:00:25;28.60;86.80
17381;DHT22;8808;52.478;13.378;2022-08-04T14:03:04;28.20;90.10
17381;DHT22;8808;52.478;13.378;2022-08-04T14:05:32;28.00;90.50
17381;DHT22;8808;52.478;13.378;2022-08-04T14:08:08;27.70;90.90
17381;DHT22;8808;52.478;13.378;2022-08-04T14:10:38;27.60;91.10
17381;DHT22;8808;52.478;13.378;2022-08-04T14:13:06;27.50;91.70
17381;DHT22;8808;52.478;13.378;2022-08-04T14:15:36;27.80;91.20
17381;DHT22;8808;52.478;13.378;2022-08-04T14:18:18;27.70;91.00
17381;DHT22;8808;52.478;13.378;2022-08-04T14:21:05;27.90;91.10
17381;DHT22;8808;52.478;13.378;2022-08-04T14:23:45;28.40;90.30
17381;DHT22;8808;52.478;13.378;2022-08-04T14:26:19;28.30;90.50
17381;DHT22;8808;52.478;13.378;2022-08-04T14:28:46;28.70;87.40
17381;DHT22;8808;52.478;13.378;2022-08-04T14:31:15;28.40;90.00
17381;DHT22;8808;52.478;13.378;2022-08-04T14:33:44;28.10;90.30
17381;DHT22;8808;52.478;13.378;2022-08-04T14:36:12;28.30;89.90
17381;DHT22;8808;52.478;13.378;2022-08-04T14:38:57;28.00;89.80
17381;DHT22;8808;52.478;13.378;2022-08-04T14:41:25;28.60;89.10
17381;DHT22;8808;52.478;13.378;2022-08-04T14:43:54;28.10;90.50
17381;DHT22;8808;52.478;13.378;2022-08-04T14:46:22;28.00;88.80
17381;DHT22;8808;52.478;13.378;2022-08-04T14:49:01;27.90;90.00
17381;DHT22;8808;52.478;13.378;2022-08-04T14:51:33;27.70;90.20
17381;DHT22;8808;52.478;13.378;2022-08-04T14:54:02;28.60;86.70
17381;DHT22;8808;52.478;13.378;2022-08-04T14:56:29;28.00;90.20
17381;DHT22;8808;52.478;13.378;2022-08-04T14:59:02;27.60;91.10
17381;DHT22;8808;52.478;13.378;2022-08-04T15:01:29;27.80;90.40
17381;DHT22;8808;52.478;13.378;2022-08-04T15:03:57;27.90;90.10
17381;DHT22;8808;52.478;13.378;2022-08-04T15:06:27;27.60;90.90
17381;DHT22;8808;52.478;13.378;2022-08-04T15:09:06;27.70;90.50
17381;DHT22;8808;52.478;13.378;2022-08-04T15:11:36;28.30;90.00
17381;DHT22;8808;52.478;13.378;2022-08-04T15:14:04;29.00;83.40
17381;DHT22;8808;52.478;13.378;2022-08-04T15:16:32;28.30;89.90
17381;DHT22;8808;52.478;13.378;2022-08-04T15:18:59;28.00;88.80
17381;DHT22;8808;52.478;13.378;2022-08-04T15:21:27;28.30;88.10
17381;DHT22;8808;52.478;13.378;2022-08-04T15:23:54;28.20;90.20
17381;DHT22;8808;52.478;13.378;2022-08-04T15:26:26;27.80;90.70
17381;DHT22;8808;52.478;13.378;2022-08-04T15:28:59;27.60;91.10
17381;DHT22;8808;52.478;13.378;2022-08-04T15:31:28;27.40;91.40
17381;DHT22;8808;52.478;13.378;2022-08-04T15:34:00;27.90;85.90
17381;DHT22;8808;52.478;13.378;2022-08-04T15:36:33;27.80;90.70
17381;DHT22;8808;52.478;13.378;2022-08-04T15:39:05;27.70;90.40
17381;DHT22;8808;52.478;13.378;2022-08-04T15:41:43;27.50;91.40
17381;DHT22;8808;52.478;13.378;2022-08-04T15:47:17;27.60;91.20
17381;DHT22;8808;52.478;13.378;2022-08-04T15:49:44;28.70;89.00
17381;DHT22;8808;52.478;13.378;2022-08-04T15:52:13;28.40;89.40
17381;DHT22;8808;52.478;13.378;2022-08-04T15:54:41;28.20;82.50
17381;DHT22;8808;52.478;13.378;2022-08-04T15:57:08;28.20;90.00
17381;DHT22;8808;52.478;13.378;2022-08-04T15:59:57;27.60;91.00
17381;DHT22;8808;52.478;13.378;2022-08-04T16:02:35;27.50;90.70
17381;DHT22;8808;52.478;13.378;2022-08-04T16:05:30;27.60;91.20
17381;DHT22;8808;52.478;13.378;2022-08-04T16:08:08;27.70;90.60
17381;DHT22;8808;52.478;13.378;2022-08-04T16:10:36;27.60;91.10
17381;DHT22;8808;52.478;13.378;2022-08-04T16:13:06;27.90;90.50
17381;DHT22;8808;52.478;13.378;2022-08-04T16:15:37;28.00;90.60
17381;DHT22;8808;52.478;13.378;2022-08-04T16:18:06;27.90;90.90
17381;DHT22;8808;52.478;13.378;2022-08-04T16:20:35;27.50;90.80
17381;DHT22;8808;52.478;13.378;2022-08-04T16:23:15;27.60;91.10
17381;DHT22;8808;52.478;13.378;2022-08-04T16:25:47;27.60;91.30
17381;DHT22;8808;52.478;13.378;2022-08-04T16:28:37;27.40;91.10
17381;DHT22;8808;52.478;13.378;2022-08-04T16:31:07;27.30;91.70
17381;DHT22;8808;52.478;13.378;2022-08-04T16:33:36;27.20;91.60
17381;DHT22;8808;52.478;13.378;2022-08-04T16:36:06;27.30;91.50
17381;DHT22;8808;52.478;13.378;2022-08-04T16:38:59;27.60;91.00
17381;DHT22;8808;52.478;13.378;2022-08-04T16:41:38;27.30;90.80
17381;DHT22;8808;52.478;13.378;2022-08-04T16:44:29;27.30;91.70
17381;DHT22;8808;52.478;13.378;2022-08-04T16:46:57;27.20;92.00
17381;DHT22;8808;52.478;13.378;2022-08-04T16:49:26;27.20;91.60
17381;DHT22;8808;52.478;13.378;2022-08-04T16:51:55;27.20;92.20
17381;DHT22;8808;52.478;13.378;2022-08-04T16:54:28;27.20;92.20
17381;DHT22;8808;52.478;13.378;2022-08-04T16:56:57;27.20;91.70
17381;DHT22;8808;52.478;13.378;2022-08-04T16:59:24;27.30;91.70
17381;DHT22;8808;52.478;13.378;2022-08-04T17:01:53;27.40;90.10
17381;DHT22;8808;52.478;13.378;2022-08-04T17:04:29;27.30;91.80